sensor_id;sensor_type;location;lat;lon;timestamp;temperature;humidity
24560;DHT22;12727;49.934;8.656;2022-12-17T00:01:24;-8.80;99.90
24560;DHT22;12727;49.934;8.656;2022-12-17T00:04:08;-8.80;99.90
24560;DHT22;12727;49.934;8.656;2022-12-17T00:06:52;-8.80;99.90
24560;DHT22;12727;49.934;8.656;2022-12-17T00:09:37;-8.80;99.90
24560;DHT22;12727;49.934;8.656;2022-12-17T00:12:21;-8.80;99.90
24560;DHT22;12727;49.934;8.656;2022-12-17T00:15:05;-8.80;99.90
24560;DHT22;12727;49.934;8.656;2022-12-17T00:17:50;-8.80;99.90
24560;DHT22;12727;49.934;8.656;2022-12-17T00:20:34;-8.80;99.90
24560;DHT22;12727;49.934;8.656;2022-12-17T00:23:18;-8.80;99.90
24560;DHT22;12727;49.934;8.656;2022-12-17T00:26:02;-8.90;99.90
24560;DHT22;12727;49.934;8.656;2022-12-17T00:28:47;-8.90;99.90
24560;DHT22;12727;49.934;8.656;2022-12-17T00:31:31;-9.00;99.90
24560;DHT22;12727;49.934;8.656;2022-12-17T00:34:15;-9.00;99.90
24560;DHT22;12727;49.934;8.656;2022-12-17T00:37:00;-9.00;99.90
24560;DHT22;12727;49.934;8.656;2022-12-17T00:39:44;-9.00;99.90
24560;DHT22;12727;49.934;8.656;2022-12-17T00:42:28;-9.00;99.90
24560;DHT22;12727;49.934;8.656;2022-12-17T00:45:12;-9.00;99.90
24560;DHT22;12727;49.934;8.656;2022-12-17T00:47:57;-9.00;99.90
24560;DHT22;12727;49.934;8.656;2022-12-17T00:50:41;-9.10;99.90
24560;DHT22;12727;49.934;8.656;2022-12-17T00:53:26;-9.20;99.90
24560;DHT22;12727;49.934;8.656;2022-12-17T00:56:10;-9.10;99.90
24560;DHT22;12727;49.934;8.656;2022-12-17T00:58:55;-9.00;99.90
24560;DHT22;12727;49.934;8.656;2022-12-17T01:01:39;-8.80;99.90
24560;DHT22;12727;49.934;8.656;2022-12-17T01:04:23;-8.20;99.90
24560;DHT22;12727;49.934;8.656;2022-12-17T01:07:08;-7.20;99.90
24560;DHT22;12727;49.934;8.656;2022-12-17T01:09:52;-7.50;99.90
24560;DHT22;12727;49.934;8.656;2022-12-17T01:12:41;-7.90;99.90
24560;DHT22;12727;49.934;8.656;2022-12-17T01:15:25;-8.20;99.90
24560;DHT22;12727;49.934;8.656;2022-12-17T01:18:19;-8.50;99.90
24560;DHT22;12727;49.934;8.656;2022-12-17T01:21:03;-8.80;99.90
24560;DHT22;12727;49.934;8.656;2022-12-17T01:23:47;-8.90;99.90
24560;DHT22;12727;49.934;8.656;2022-12-17T01:26:32;-8.80;99.90
24560;DHT22;12727;49.934;8.656;2022-12-17T01:29:16;-8.90;99.90
24560;DHT22;12727;49.934;8.656;2022-12-17T01:32:00;-9.00;99.90
24560;DHT22;12727;49.934;8.656;2022-12-17T01:34:45;-9.00;99.90
24560;DHT22;12727;49.934;8.656;2022-12-17T01:37:29;-9.00;99.90
24560;DHT22;12727;49.934;8.656;2022-12-17T01:40:14;-9.00;99.90
24560;DHT22;12727;49.934;8.656;2022-12-17T01:42:59;-9.10;99.90
24560;DHT22;12727;49.934;8.656;2022-12-17T01:45:48;-9.10;99.90
24560;DHT22;12727;49.934;8.656;2022-12-17T01:48:39;-9.10;99.90
24560;DHT22;12727;49.934;8.656;2022-12-17T01:51:25;-9.20;99.90
24560;DHT22;12727;49.934;8.656;2022-12-17T01:54:11;-9.10;99.90
24560;DHT22;12727;49.934;8.656;2022-12-17T01:56:56;-9.20;99.90
24560;DHT22;12727;49.934;8.656;2022-12-17T01:59:49;-9.20;99.90
24560;DHT22;12727;49.934;8.656;2022-12-17T02:02:33;-9.30;99.90
24560;DHT22;12727;49.934;8.656;2022-12-17T02:05:21;-9.30;99.90
24560;DHT22;12727;49.934;8.656;2022-12-17T02:08:29;-9.40;99.90
24560;DHT22;12727;49.934;8.656;2022-12-17T02:14:32;-9.40;99.90
24560;DHT22;12727;49.934;8.656;2022-12-17T02:17:20;-9.40;99.90
24560;DHT22;12727;49.934;8.656;2022-12-17T02:20:35;-9.50;99.90
24560;DHT22;12727;49.934;8.656;2022-12-17T02:26:44;-9.40;99.90
24560;DHT22;12727;49.934;8.656;2022-12-17T02:29:33;-9.40;99.90
24560;DHT22;12727;49.934;8.656;2022-12-17T02:32:19;-9.50;99.90
24560;DHT22;12727;49.934;8.656;2022-12-17T02:35:12;-9.50;99.90
24560;DHT22;12727;49.934;8.656;2022-12-17T02:37:57;-9.50;99.90
24560;DHT22;12727;49.934;8.656;2022-12-17T02:40:44;-9.50;99.90
24560;DHT22;12727;49.934;8.656;2022-12-17T02:43:30;-9.40;99.90
24560;DHT22;12727;49.934;8.656;2022-12-17T02:46:16;-9.40;99.90
24560;DHT22;12727;49.934;8.656;2022-12-17T02:49:01;-9.40;99.90
24560;DHT22;12727;49.934;8.656;2022-12-17T02:51:45;-9.40;99.90
24560;DHT22;12727;49.934;8.656;2022-12-17T02:54:31;-9.50;99.90
24560;DHT22;12727;49.934;8.656;2022-12-17T02:57:15;-9.40;99.90
24560;DHT22;12727;49.934;8.656;2022-12-17T02:59:59;-9.40;99.90
24560;DHT22;12727;49.934;8.656;2022-12-17T03:02:44;-9.30;99.90
24560;DHT22;12727;49.934;8.656;2022-12-17T03:05:28;-9.40;99.90
24560;DHT22;12727;49.934;8.656;2022-12-17T03:08:12;-9.30;99.90
24560;DHT22;12727;49.934;8.656;2022-12-17T03:10:57;-9.40;99.90
24560;DHT22;12727;49.934;8.656;2022-12-17T03:13:41;-9.40;99.90
24560;DHT22;12727;49.934;8.656;2022-12-17T03:16:25;-9.40;99.90
24560;DHT22;12727;49.934;8.656;2022-12-17T03:19:10;-9.30;99.90
24560;DHT22;12727;49.934;8.656;2022-12-17T03:21:54;-9.30;99.90
24560;DHT22;12727;49.934;8.656;2022-12-17T03:24:38;-9.40;99.90
24560;DHT22;12727;49.934;8.656;2022-12-17T03:27:23;-9.50;99.90
24560;DHT22;12727;49.934;8.656;2022-12-17T03:30:08;-9.50;99.90
24560;DHT22;12727;49.934;8.656;2022-12-17T03:33:00;-9.50;99.90
24560;DHT22;12727;49.934;8.656;2022-12-17T03:35:44;-9.50;99.90
24560;DHT22;12727;49.934;8.656;2022-12-17T03:38:28;-9.50;99.90
24560;DHT22;12727;49.934;8.656;2022-12-17T03:41:12;-9.60;99.90
24560;DHT22;12727;49.934;8.656;2022-12-17T03:43:57;-9.60;99.90
24560;DHT22;12727;49.934;8.656;2022-12-17T03:46:41;-9.60;99.90
24560;DHT22;12727;49.934;8.656;2022-12-17T03:49:25;-9.50;99.90
24560;DHT22;12727;49.934;8.656;2022-12-17T03:52:09;-9.10;99.90
24560;DHT22;12727;49.934;8.656;2022-12-17T03:54:54;-8.30;99.90
24560;DHT22;12727;49.934;8.656;2022-12-17T03:57:38;-8.70;99.90
24560;DHT22;12727;49.934;8.656;2022-12-17T04:00:23;-9.20;99.90
24560;DHT22;12727;49.934;8.656;2022-12-17T04:03:07;-9.40;99.90
24560;DHT22;12727;49.934;8.656;2022-12-17T04:05:51;-9.50;99.90
24560;DHT22;12727;49.934;8.656;2022-12-17T04:08:35;-9.60;99.90
24560;DHT22;12727;49.934;8.656;2022-12-17T04:11:20;-9.80;99.90
24560;DHT22;12727;49.934;8.656;2022-12-17T04:14:04;-9.70;99.90
24560;DHT22;12727;49.934;8.656;2022-12-17T04:16:48;-9.70;99.90
24560;DHT22;12727;49.934;8.656;2022-12-17T04:19:33;-9.80;99.90
24560;DHT22;12727;49.934;8.656;2022-12-17T04:22:17;-9.90;99.90
24560;DHT22;12727;49.934;8.656;2022-12-17T04:25:01;-10.00;99.90
24560;DHT22;12727;49.934;8.656;2022-12-17T04:27:46;-10.00;99.90
24560;DHT22;12727;49.934;8.656;2022-12-17T04:30:30;-10.00;99.90
24560;DHT22;12727;49.934;8.656;2022-12-17T04:33:14;-10.10;99.90
24560;DHT22;12727;49.934;8.656;2022-12-17T04:35:59;-10.10;99.90
24560;DHT22;12727;49.934;8.656;2022-12-17T04:38:43;-10.10;99.90
24560;DHT22;12727;49.934;8.656;2022-12-17T04:41:27;-10.10;99.90
24560;DHT22;12727;49.934;8.656;2022-12-17T04:44:12;-10.10;99.90
24560;DHT22;12727;49.934;8.656;2022-12-17T04:46:56;-10.10;99.90
24560;DHT22;12727;49.934;8.656;2022-12-17T04:49:40;-10.10;99.90
24560;DHT22;12727;49.934;8.656;2022-12-17T04:52:24;-10.00;99.90
24560;DHT22;12727;49.934;8.656;2022-12-17T04:55:09;-10.00;99.90
24560;DHT22;12727;49.934;8.656;2022-12-17T04:57:53;-9.90;99.90
24560;DHT22;12727;49.934;8.656;2022-12-17T05:00:37;-9.90;99.90
24560;DHT22;12727;49.934;8.656;2022-12-17T05:03:36;-9.90;99.90
24560;DHT22;12727;49.934;8.656;2022-12-17T05:06:20;-9.90;99.90
24560;DHT22;12727;49.934;8.656;2022-12-17T05:09:04;-9.90;99.90
24560;DHT22;12727;49.934;8.656;2022-12-17T05:11:48;-9.90;99.90
24560;DHT22;12727;49.934;8.656;2022-12-17T05:14:33;-9.90;99.90
24560;DHT22;12727;49.934;8.656;2022-12-17T05:17:17;-9.90;99.90
24560;DHT22;12727;49.934;8.656;2022-12-17T05:20:02;-10.00;99.90
24560;DHT22;12727;49.934;8.656;2022-12-17T05:22:46;-10.00;99.90
24560;DHT22;12727;49.934;8.656;2022-12-17T05:25:30;-10.00;99.90
24560;DHT22;12727;49.934;8.656;2022-12-17T05:28:14;-10.00;99.90
24560;DHT22;12727;49.934;8.656;2022-12-17T05:30:58;-9.90;99.90
24560;DHT22;12727;49.934;8.656;2022-12-17T05:33:43;-9.90;99.90
24560;DHT22;12727;49.934;8.656;2022-12-17T05:36:44;-9.80;99.90
24560;DHT22;12727;49.934;8.656;2022-12-17T05:39:28;-9.80;99.90
24560;DHT22;12727;49.934;8.656;2022-12-17T05:42:12;-9.90;99.90
24560;DHT22;12727;49.934;8.656;2022-12-17T05:44:56;-9.90;99.90
24560;DHT22;12727;49.934;8.656;2022-12-17T05:47:41;-9.90;99.90
24560;DHT22;12727;49.934;8.656;2022-12-17T05:50:25;-9.90;99.90
24560;DHT22;12727;49.934;8.656;2022-12-17T05:53:09;-9.90;99.90
24560;DHT22;12727;49.934;8.656;2022-12-17T05:55:53;-9.80;99.90
24560;DHT22;12727;49.934;8.656;2022-12-17T05:58:38;-9.70;99.90
24560;DHT22;12727;49.934;8.656;2022-12-17T06:01:23;-9.70;99.90
24560;DHT22;12727;49.934;8.656;2022-12-17T06:04:11;-9.80;99.90
24560;DHT22;12727;49.934;8.656;2022-12-17T06:06:56;-9.90;99.90
24560;DHT22;12727;49.934;8.656;2022-12-17T06:09:40;-9.90;99.90
24560;DHT22;12727;49.934;8.656;2022-12-17T06:12:24;-10.00;99.90
24560;DHT22;12727;49.934;8.656;2022-12-17T06:15:09;-10.10;99.90
24560;DHT22;12727;49.934;8.656;2022-12-17T06:17:55;-10.20;99.90
24560;DHT22;12727;49.934;8.656;2022-12-17T06:20:40;-10.20;99.90
24560;DHT22;12727;49.934;8.656;2022-12-17T06:23:24;-10.20;99.90
24560;DHT22;12727;49.934;8.656;2022-12-17T06:26:08;-10.20;99.90
24560;DHT22;12727;49.934;8.656;2022-12-17T06:28:52;-10.30;99.90
24560;DHT22;12727;49.934;8.656;2022-12-17T06:31:37;-10.30;99.90
24560;DHT22;12727;49.934;8.656;2022-12-17T06:34:21;-10.10;99.90
24560;DHT22;12727;49.934;8.656;2022-12-17T06:37:05;-10.20;99.90
24560;DHT22;12727;49.934;8.656;2022-12-17T06:39:50;-10.20;99.90
24560;DHT22;12727;49.934;8.656;2022-12-17T06:42:34;-10.20;99.90
24560;DHT22;12727;49.934;8.656;2022-12-17T06:45:19;-10.20;99.90
24560;DHT22;12727;49.934;8.656;2022-12-17T06:48:05;-10.10;99.90
24560;DHT22;12727;49.934;8.656;2022-12-17T06:50:52;-10.00;99.90
24560;DHT22;12727;49.934;8.656;2022-12-17T06:53:36;-9.80;99.90
24560;DHT22;12727;49.934;8.656;2022-12-17T06:56:20;-9.50;99.90
24560;DHT22;12727;49.934;8.656;2022-12-17T06:59:05;-9.40;99.90
24560;DHT22;12727;49.934;8.656;2022-12-17T07:01:49;-9.30;99.90
24560;DHT22;12727;49.934;8.656;2022-12-17T07:04:33;-9.40;99.90
24560;DHT22;12727;49.934;8.656;2022-12-17T07:07:18;-9.50;99.90
24560;DHT22;12727;49.934;8.656;2022-12-17T07:10:03;-9.30;99.90
24560;DHT22;12727;49.934;8.656;2022-12-17T07:12:47;-9.20;99.90
24560;DHT22;12727;49.934;8.656;2022-12-17T07:15:31;-9.10;99.90
24560;DHT22;12727;49.934;8.656;2022-12-17T07:18:15;-9.20;99.90
24560;DHT22;12727;49.934;8.656;2022-12-17T07:21:00;-9.20;99.90
24560;DHT22;12727;49.934;8.656;2022-12-17T07:23:44;-9.20;99.90
24560;DHT22;12727;49.934;8.656;2022-12-17T07:26:29;-9.20;99.90
24560;DHT22;12727;49.934;8.656;2022-12-17T07:29:13;-9.20;99.90
24560;DHT22;12727;49.934;8.656;2022-12-17T07:31:58;-9.20;99.90
24560;DHT22;12727;49.934;8.656;2022-12-17T07:34:42;-9.10;99.90
24560;DHT22;12727;49.934;8.656;2022-12-17T07:37:26;-9.10;99.90
24560;DHT22;12727;49.934;8.656;2022-12-17T07:40:30;-9.00;99.90
24560;DHT22;12727;49.934;8.656;2022-12-17T07:43:16;-8.70;99.90
24560;DHT22;12727;49.934;8.656;2022-12-17T07:46:00;-8.30;99.90
24560;DHT22;12727;49.934;8.656;2022-12-17T07:48:58;-8.60;99.90
24560;DHT22;12727;49.934;8.656;2022-12-17T07:51:42;-8.80;99.90
24560;DHT22;12727;49.934;8.656;2022-12-17T07:54:26;-8.80;99.90
24560;DHT22;12727;49.934;8.656;2022-12-17T07:57:11;-8.70;99.90
24560;DHT22;12727;49.934;8.656;2022-12-17T07:59:55;-8.60;99.90
24560;DHT22;12727;49.934;8.656;2022-12-17T08:02:39;-8.60;99.90
24560;DHT22;12727;49.934;8.656;2022-12-17T08:05:24;-8.50;99.90
24560;DHT22;12727;49.934;8.656;2022-12-17T08:08:09;-8.40;99.90
24560;DHT22;12727;49.934;8.656;2022-12-17T08:10:54;-8.50;99.90
24560;DHT22;12727;49.934;8.656;2022-12-17T08:13:39;-8.50;99.90
24560;DHT22;12727;49.934;8.656;2022-12-17T08:16:23;-8.50;99.90
24560;DHT22;12727;49.934;8.656;2022-12-17T08:19:07;-8.40;99.90
24560;DHT22;12727;49.934;8.656;2022-12-17T08:21:51;-8.40;99.90
24560;DHT22;12727;49.934;8.656;2022-12-17T08:24:36;-8.30;99.90
24560;DHT22;12727;49.934;8.656;2022-12-17T08:27:20;-8.10;99.90
24560;DHT22;12727;49.934;8.656;2022-12-17T08:30:06;-8.00;99.90
24560;DHT22;12727;49.934;8.656;2022-12-17T08:32:50;-7.90;99.90
24560;DHT22;12727;49.934;8.656;2022-12-17T08:35:34;-7.80;99.90
24560;DHT22;12727;49.934;8.656;2022-12-17T08:38:19;-7.30;99.90
24560;DHT22;12727;49.934;8.656;2022-12-17T08:41:04;-7.30;99.90
24560;DHT22;12727;49.934;8.656;2022-12-17T08:43:48;-7.30;99.90
24560;DHT22;12727;49.934;8.656;2022-12-17T08:46:32;-7.50;99.90
24560;DHT22;12727;49.934;8.656;2022-12-17T08:49:16;-7.50;99.90
24560;DHT22;12727;49.934;8.656;2022-12-17T08:52:01;-7.50;99.90
24560;DHT22;12727;49.934;8.656;2022-12-17T08:54:45;-7.50;99.90
24560;DHT22;12727;49.934;8.656;2022-12-17T08:57:30;-7.40;99.90
24560;DHT22;12727;49.934;8.656;2022-12-17T09:00:25;-7.40;99.90
24560;DHT22;12727;49.934;8.656;2022-12-17T09:03:09;-7.40;99.90
24560;DHT22;12727;49.934;8.656;2022-12-17T09:05:53;-7.30;99.90
24560;DHT22;12727;49.934;8.656;2022-12-17T09:08:38;-7.20;99.90
24560;DHT22;12727;49.934;8.656;2022-12-17T09:11:22;-7.10;99.90
24560;DHT22;12727;49.934;8.656;2022-12-17T09:14:06;-7.10;99.90
24560;DHT22;12727;49.934;8.656;2022-12-17T09:16:50;-7.00;99.90
24560;DHT22;12727;49.934;8.656;2022-12-17T09:19:35;-6.90;99.90
24560;DHT22;12727;49.934;8.656;2022-12-17T09:22:19;-6.60;99.90
24560;DHT22;12727;49.934;8.656;2022-12-17T09:25:04;-6.50;99.90
24560;DHT22;12727;49.934;8.656;2022-12-17T09:27:48;-6.50;99.90
24560;DHT22;12727;49.934;8.656;2022-12-17T09:30:32;-6.20;99.90
24560;DHT22;12727;49.934;8.656;2022-12-17T09:33:18;-6.30;99.90
24560;DHT22;12727;49.934;8.656;2022-12-17T09:36:06;-6.20;99.90
24560;DHT22;12727;49.934;8.656;2022-12-17T09:38:50;-6.20;99.90
24560;DHT22;12727;49.934;8.656;2022-12-17T09:44:52;-6.00;99.90
24560;DHT22;12727;49.934;8.656;2022-12-17T09:51:00;-5.90;99.90
24560;DHT22;12727;49.934;8.656;2022-12-17T09:53:49;-5.60;99.90
24560;DHT22;12727;49.934;8.656;2022-12-17T09:56:35;-5.70;99.90
24560;DHT22;12727;49.934;8.656;2022-12-17T09:59:23;-5.60;99.90
24560;DHT22;12727;49.934;8.656;2022-12-17T10:02:19;-5.60;99.90
24560;DHT22;12727;49.934;8.656;2022-12-17T10:05:08;-5.20;99.90
24560;DHT22;12727;49.934;8.656;2022-12-17T10:07:55;-4.80;99.90
24560;DHT22;12727;49.934;8.656;2022-12-17T10:10:44;-4.30;99.90
24560;DHT22;12727;49.934;8.656;2022-12-17T10:13:29;-4.30;99.90
24560;DHT22;12727;49.934;8.656;2022-12-17T10:19:04;-4.70;99.90
24560;DHT22;12727;49.934;8.656;2022-12-17T10:21:49;-4.90;99.90
24560;DHT22;12727;49.934;8.656;2022-12-17T10:24:43;-4.50;99.90
24560;DHT22;12727;49.934;8.656;2022-12-17T10:27:27;-4.40;99.90
24560;DHT22;12727;49.934;8.656;2022-12-17T10:30:15;-4.30;99.90
24560;DHT22;12727;49.934;8.656;2022-12-17T10:33:04;-3.90;99.90
24560;DHT22;12727;49.934;8.656;2022-12-17T10:35:49;-3.80;99.90
24560;DHT22;12727;49.934;8.656;2022-12-17T10:38:33;-4.10;99.90
24560;DHT22;12727;49.934;8.656;2022-12-17T10:41:29;-4.30;99.90
24560;DHT22;12727;49.934;8.656;2022-12-17T10:44:24;-4.30;99.90
24560;DHT22;12727;49.934;8.656;2022-12-17T10:47:17;-4.30;99.90
24560;DHT22;12727;49.934;8.656;2022-12-17T10:50:12;-4.60;99.90
24560;DHT22;12727;49.934;8.656;2022-12-17T10:52:57;-4.40;99.90
24560;DHT22;12727;49.934;8.656;2022-12-17T10:55:53;-4.30;99.90
24560;DHT22;12727;49.934;8.656;2022-12-17T10:58:43;-4.30;99.90
24560;DHT22;12727;49.934;8.656;2022-12-17T11:01:29;-4.30;99.90
24560;DHT22;12727;49.934;8.656;2022-12-17T11:04:36;-4.50;99.90
24560;DHT22;12727;49.934;8.656;2022-12-17T11:07:39;-4.20;99.90
24560;DHT22;12727;49.934;8.656;2022-12-17T11:10:28;-3.80;99.90
24560;DHT22;12727;49.934;8.656;2022-12-17T11:13:30;-3.80;99.90
24560;DHT22;12727;49.934;8.656;2022-12-17T11:16:47;-3.80;99.90
24560;DHT22;12727;49.934;8.656;2022-12-17T11:19:49;-3.90;99.90
24560;DHT22;12727;49.934;8.656;2022-12-17T11:22:51;-4.10;99.90
24560;DHT22;12727;49.934;8.656;2022-12-17T11:25:58;-4.30;99.90
24560;DHT22;12727;49.934;8.656;2022-12-17T11:28:43;-4.30;99.90
24560;DHT22;12727;49.934;8.656;2022-12-17T11:31:54;-4.40;99.90
24560;DHT22;12727;49.934;8.656;2022-12-17T11:35:05;-4.40;99.90
24560;DHT22;12727;49.934;8.656;2022-12-17T11:40:50;-4.20;99.90
24560;DHT22;12727;49.934;8.656;2022-12-17T11:46:54;-4.20;99.90
24560;DHT22;12727;49.934;8.656;2022-12-17T11:56:20;-4.30;99.90
24560;DHT22;12727;49.934;8.656;2022-12-17T11:59:36;-4.60;99.90
24560;DHT22;12727;49.934;8.656;2022-12-17T12:02:41;-4.40;99.90
24560;DHT22;12727;49.934;8.656;2022-12-17T12:05:43;-4.40;99.90
24560;DHT22;12727;49.934;8.656;2022-12-17T12:14:53;-4.00;99.90
24560;DHT22;12727;49.934;8.656;2022-12-17T12:18:04;-4.10;99.90
24560;DHT22;12727;49.934;8.656;2022-12-17T12:21:33;-4.10;99.90
24560;DHT22;12727;49.934;8.656;2022-12-17T12:27:35;-4.20;99.90
24560;DHT22;12727;49.934;8.656;2022-12-17T12:30:32;-4.30;99.90
24560;DHT22;12727;49.934;8.656;2022-12-17T12:33:53;-4.30;99.90
24560;DHT22;12727;49.934;8.656;2022-12-17T12:36:40;-3.90;99.90
24560;DHT22;12727;49.934;8.656;2022-12-17T12:39:31;-4.00;99.90
24560;DHT22;12727;49.934;8.656;2022-12-17T12:42:31;-4.20;99.90
24560;DHT22;12727;49.934;8.656;2022-12-17T12:45:44;-4.60;99.90
24560;DHT22;12727;49.934;8.656;2022-12-17T12:51:54;-4.50;99.90
24560;DHT22;12727;49.934;8.656;2022-12-17T13:03:25;-3.90;99.90
24560;DHT22;12727;49.934;8.656;2022-12-17T13:06:12;-3.80;99.90
24560;DHT22;12727;49.934;8.656;2022-12-17T13:08:39;-4.10;99.90
24560;DHT22;12727;49.934;8.656;2022-12-17T13:11:28;-4.00;99.90
24560;DHT22;12727;49.934;8.656;2022-12-17T13:13:58;-4.10;99.90
24560;DHT22;12727;49.934;8.656;2022-12-17T13:16:47;-4.10;99.90
24560;DHT22;12727;49.934;8.656;2022-12-17T13:22:08;-4.30;99.90
24560;DHT22;12727;49.934;8.656;2022-12-17T13:24:34;-4.30;99.90
24560;DHT22;12727;49.934;8.656;2022-12-17T13:27:00;-4.30;99.90
24560;DHT22;12727;49.934;8.656;2022-12-17T13:29:33;-4.30;99.90
24560;DHT22;12727;49.934;8.656;2022-12-17T13:34:34;-4.00;99.90
24560;DHT22;12727;49.934;8.656;2022-12-17T13:37:28;-4.00;99.90
24560;DHT22;12727;49.934;8.656;2022-12-17T13:42:58;-4.20;99.90
24560;DHT22;12727;49.934;8.656;2022-12-17T13:45:25;-4.30;99.90
24560;DHT22;12727;49.934;8.656;2022-12-17T13:47:56;-4.20;99.90
24560;DHT22;12727;49.934;8.656;2022-12-17T13:50:25;-4.20;99.90
24560;DHT22;12727;49.934;8.656;2022-12-17T13:52:52;-4.20;99.90
24560;DHT22;12727;49.934;8.656;2022-12-17T13:55:21;-4.20;99.90
24560;DHT22;12727;49.934;8.656;2022-12-17T13:57:48;-4.30;99.90
24560;DHT22;12727;49.934;8.656;2022-12-17T14:00:33;-4.30;99.90
24560;DHT22;12727;49.934;8.656;2022-12-17T14:03:09;-4.30;99.90
24560;DHT22;12727;49.934;8.656;2022-12-17T14:05:37;-4.40;99.90
24560;DHT22;12727;49.934;8.656;2022-12-17T14:08:06;-4.10;99.90
24560;DHT22;12727;49.934;8.656;2022-12-17T14:10:32;-3.70;99.90
24560;DHT22;12727;49.934;8.656;2022-12-17T14:13:05;-3.40;99.90
24560;DHT22;12727;49.934;8.656;2022-12-17T14:15:31;-3.20;99.90
24560;DHT22;12727;49.934;8.656;2022-12-17T14:17:57;-3.50;99.90
24560;DHT22;12727;49.934;8.656;2022-12-17T14:20:25;-3.80;99.90
24560;DHT22;12727;49.934;8.656;2022-12-17T14:23:02;-4.10;99.90
24560;DHT22;12727;49.934;8.656;2022-12-17T14:25:36;-4.20;99.90
24560;DHT22;12727;49.934;8.656;2022-12-17T14:28:05;-4.30;99.90
24560;DHT22;12727;49.934;8.656;2022-12-17T14:30:41;-4.40;99.90
24560;DHT22;12727;49.934;8.656;2022-12-17T14:33:33;-4.50;99.90
24560;DHT22;12727;49.934;8.656;2022-12-17T14:36:20;-4.50;99.90
24560;DHT22;12727;49.934;8.656;2022-12-17T14:38:55;-4.50;99.90
24560;DHT22;12727;49.934;8.656;2022-12-17T14:41:21;-4.60;99.90
24560;DHT22;12727;49.934;8.656;2022-12-17T14:44:19;-4.60;99.90
24560;DHT22;12727;49.934;8.656;2022-12-17T14:46:45;-4.70;99.90
24560;DHT22;12727;49.934;8.656;2022-12-17T14:49:18;-4.70;99.90
24560;DHT22;12727;49.934;8.656;2022-12-17T14:51:45;-4.60;99.90
24560;DHT22;12727;49.934;8.656;2022-12-17T14:54:27;-4.60;99.90
24560;DHT22;12727;49.934;8.656;2022-12-17T14:56:55;-4.50;99.90
24560;DHT22;12727;49.934;8.656;2022-12-17T15:01:52;-4.10;99.90
24560;DHT22;12727;49.934;8.656;2022-12-17T15:04:19;-3.80;99.90
24560;DHT22;12727;49.934;8.656;2022-12-17T15:06:45;-3.70;99.90
24560;DHT22;12727;49.934;8.656;2022-12-17T15:09:12;-3.80;99.90
24560;DHT22;12727;49.934;8.656;2022-12-17T15:11:38;-4.10;99.90
24560;DHT22;12727;49.934;8.656;2022-12-17T15:14:04;-4.40;99.90
24560;DHT22;12727;49.934;8.656;2022-12-17T15:16:30;-4.50;99.90
24560;DHT22;12727;49.934;8.656;2022-12-17T15:18:57;-4.60;99.90
24560;DHT22;12727;49.934;8.656;2022-12-17T15:21:24;-4.70;99.90
24560;DHT22;12727;49.934;8.656;2022-12-17T15:23:53;-4.80;99.90
24560;DHT22;12727;49.934;8.656;2022-12-17T15:26:25;-5.00;99.90
24560;DHT22;12727;49.934;8.656;2022-12-17T15:28:52;-5.20;99.90
24560;DHT22;12727;49.934;8.656;2022-12-17T15:31:33;-5.30;99.90
24560;DHT22;12727;49.934;8.656;2022-12-17T15:34:01;-5.30;99.90
24560;DHT22;12727;49.934;8.656;2022-12-17T15:36:29;-5.30;99.90
24560;DHT22;12727;49.934;8.656;2022-12-17T15:38:56;-5.30;99.90
24560;DHT22;12727;49.934;8.656;2022-12-17T15:41:22;-5.40;99.90
24560;DHT22;12727;49.934;8.656;2022-12-17T15:44:06;-5.30;99.90
24560;DHT22;12727;49.934;8.656;2022-12-17T15:46:32;-5.30;99.90
24560;DHT22;12727;49.934;8.656;2022-12-17T15:48:58;-5.30;99.90
24560;DHT22;12727;49.934;8.656;2022-12-17T15:51:23;-5.30;99.90
24560;DHT22;12727;49.934;8.656;2022-12-17T15:53:50;-5.30;99.90
24560;DHT22;12727;49.934;8.656;2022-12-17T15:56:21;-5.30;99.90
24560;DHT22;12727;49.934;8.656;2022-12-17T15:58:47;-5.30;99.90
24560;DHT22;12727;49.934;8.656;2022-12-17T16:01:13;-5.30;99.90
24560;DHT22;12727;49.934;8.656;2022-12-17T16:03:39;-5.30;99.90
24560;DHT22;12727;49.934;8.656;2022-12-17T16:06:05;-5.30;99.90
24560;DHT22;12727;49.934;8.656;2022-12-17T16:08:31;-5.40;99.90
24560;DHT22;12727;49.934;8.656;2022-12-17T16:10:57;-5.40;99.90
24560;DHT22;12727;49.934;8.656;2022-12-17T16:13:22;-5.40;99.90
24560;DHT22;12727;49.934;8.656;2022-12-17T16:15:55;-5.50;99.90
24560;DHT22;12727;49.934;8.656;2022-12-17T16:18:21;-5.50;99.90
24560;DHT22;12727;49.934;8.656;2022-12-17T16:20:48;-5.50;99.90
24560;DHT22;12727;49.934;8.656;2022-12-17T16:23:13;-5.50;99.90
24560;DHT22;12727;49.934;8.656;2022-12-17T16:25:39;-5.50;99.90
24560;DHT22;12727;49.934;8.656;2022-12-17T16:28:05;-5.60;99.90
24560;DHT22;12727;49.934;8.656;2022-12-17T16:30:30;-5.60;99.90
24560;DHT22;12727;49.934;8.656;2022-12-17T16:32:59;-5.50;99.90
24560;DHT22;12727;49.934;8.656;2022-12-17T16:35:25;-5.50;99.90
24560;DHT22;12727;49.934;8.656;2022-12-17T16:37:53;-5.50;99.90
24560;DHT22;12727;49.934;8.656;2022-12-17T16:40:19;-5.60;99.90
24560;DHT22;12727;49.934;8.656;2022-12-17T16:42:44;-5.60;99.90
24560;DHT22;12727;49.934;8.656;2022-12-17T16:45:10;-5.60;99.90
24560;DHT22;12727;49.934;8.656;2022-12-17T16:47:42;-5.70;99.90
24560;DHT22;12727;49.934;8.656;2022-12-17T16:50:30;-5.80;99.90
24560;DHT22;12727;49.934;8.656;2022-12-17T16:53:05;-5.80;99.90
24560;DHT22;12727;49.934;8.656;2022-12-17T16:58:32;-5.70;99.90
24560;DHT22;12727;49.934;8.656;2022-12-17T17:01:08;-5.80;99.90
24560;DHT22;12727;49.934;8.656;2022-12-17T17:03:41;-5.80;99.90
24560;DHT22;12727;49.934;8.656;2022-12-17T17:06:08;-5.80;99.90
24560;DHT22;12727;49.934;8.656;2022-12-17T17:08:41;-5.80;99.90
24560;DHT22;12727;49.934;8.656;2022-12-17T17:11:17;-5.90;99.90
24560;DHT22;12727;49.934;8.656;2022-12-17T17:14:12;-5.90;99.90
24560;DHT22;12727;49.934;8.656;2022-12-17T17:16:41;-5.90;99.90
24560;DHT22;12727;49.934;8.656;2022-12-17T17:19:18;-5.90;99.90
24560;DHT22;12727;49.934;8.656;2022-12-17T17:21:53;-5.80;99.90
24560;DHT22;12727;49.934;8.656;2022-12-17T17:24:30;-5.90;99.90
24560;DHT22;12727;49.934;8.656;2022-12-17T17:27:06;-6.00;99.90
24560;DHT22;12727;49.934;8.656;2022-12-17T17:29:31;-6.10;99.90
24560;DHT22;12727;49.934;8.656;2022-12-17T17:32:00;-6.00;99.90
24560;DHT22;12727;49.934;8.656;2022-12-17T17:34:25;-6.00;99.90
24560;DHT22;12727;49.934;8.656;2022-12-17T17:36:51;-6.10;99.90
24560;DHT22;12727;49.934;8.656;2022-12-17T17:39:20;-6.00;99.90
24560;DHT22;12727;49.934;8.656;2022-12-17T17:41:51;-6.10;99.90
24560;DHT22;12727;49.934;8.656;2022-12-17T17:44:17;-6.10;99.90
24560;DHT22;12727;49.934;8.656;2022-12-17T17:46:42;-5.90;99.90
24560;DHT22;12727;49.934;8.656;2022-12-17T17:49:09;-5.80;99.90
24560;DHT22;12727;49.934;8.656;2022-12-17T17:51:38;-5.80;99.90
24560;DHT22;12727;49.934;8.656;2022-12-17T17:54:13;-5.50;99.90
24560;DHT22;12727;49.934;8.656;2022-12-17T17:56:59;-5.40;99.90
24560;DHT22;12727;49.934;8.656;2022-12-17T17:59:28;-5.60;99.90
24560;DHT22;12727;49.934;8.656;2022-12-17T18:02:07;-5.70;99.90
24560;DHT22;12727;49.934;8.656;2022-12-17T18:04:41;-5.90;99.90
24560;DHT22;12727;49.934;8.656;2022-12-17T18:07:08;-6.00;99.90
24560;DHT22;12727;49.934;8.656;2022-12-17T18:09:39;-6.00;99.90